createdAt,value
2017-07-26T00:00:30.311Z,17.90
2017-07-26T00:02:58.602Z,17.90
2017-07-26T00:05:26.126Z,17.80
2017-07-26T00:07:53.637Z,17.90
2017-07-26T00:10:21.157Z,17.90
2017-07-26T00:12:49.476Z,17.90
2017-07-26T00:15:16.958Z,17.90
2017-07-26T00:17:44.452Z,17.90
2017-07-26T00:20:11.964Z,17.90
2017-07-26T00:22:39.473Z,17.90
2017-07-26T00:25:07.724Z,17.90
2017-07-26T00:27:35.231Z,17.90
2017-07-26T00:30:02.726Z,17.90
2017-07-26T00:32:30.234Z,18.00
2017-07-26T00:34:57.784Z,17.90
2017-07-26T00:37:26.092Z,17.80
2017-07-26T00:39:53.616Z,17.80
2017-07-26T00:42:21.119Z,17.80
2017-07-26T00:44:48.620Z,17.90
2017-07-26T00:47:16.147Z,17.90
2017-07-26T00:49:43.699Z,17.80
2017-07-26T00:52:11.212Z,17.90
2017-07-26T00:54:38.691Z,17.90
2017-07-26T00:57:06.213Z,17.90
2017-07-26T00:59:33.722Z,18.00
2017-07-26T01:02:01.224Z,18.00
2017-07-26T01:04:28.738Z,18.00
2017-07-26T01:06:56.278Z,17.90
2017-07-26T01:09:23.763Z,17.90
2017-07-26T01:11:51.249Z,17.90
2017-07-26T01:14:18.744Z,17.80
2017-07-26T01:16:47.032Z,17.80
2017-07-26T01:19:15.315Z,17.90
2017-07-26T01:21:42.809Z,17.80
2017-07-26T01:24:10.287Z,17.90
2017-07-26T01:26:37.781Z,17.90
2017-07-26T01:29:05.296Z,18.00
2017-07-26T01:31:32.814Z,18.00
2017-07-26T01:34:00.325Z,17.90
2017-07-26T01:36:27.851Z,18.00
2017-07-26T01:38:55.685Z,18.10
2017-07-26T01:41:23.174Z,18.10
2017-07-26T01:43:51.017Z,18.10
2017-07-26T01:46:18.520Z,18.00
2017-07-26T01:48:46.001Z,18.00
2017-07-26T01:51:13.530Z,18.00
2017-07-26T01:53:41.028Z,18.00
2017-07-26T01:56:08.544Z,17.90
2017-07-26T01:58:36.052Z,17.90
2017-07-26T02:01:04.338Z,17.90
2017-07-26T02:03:32.682Z,17.90
2017-07-26T02:06:00.227Z,17.90
2017-07-26T02:08:27.877Z,17.70
2017-07-26T02:10:55.402Z,17.70
2017-07-26T02:13:22.960Z,17.60
2017-07-26T02:15:50.472Z,17.50
2017-07-26T02:18:17.968Z,17.50
2017-07-26T02:20:45.761Z,17.50
2017-07-26T02:23:13.275Z,17.40
2017-07-26T02:25:40.783Z,17.40
2017-07-26T02:28:08.293Z,17.50
2017-07-26T02:30:36.431Z,17.40
2017-07-26T02:33:04.298Z,17.30
2017-07-26T02:35:31.826Z,17.30
2017-07-26T02:38:00.099Z,17.20
2017-07-26T02:40:28.407Z,17.30
2017-07-26T02:42:55.971Z,17.20
2017-07-26T02:45:23.478Z,17.30
2017-07-26T02:47:50.972Z,17.50
2017-07-26T02:50:18.522Z,17.50
2017-07-26T02:52:46.026Z,17.50
2017-07-26T02:55:13.543Z,17.50
2017-07-26T02:57:41.805Z,17.60
2017-07-26T03:00:10.078Z,17.60
2017-07-26T03:02:37.584Z,17.50
2017-07-26T03:05:05.095Z,17.60
2017-07-26T03:07:32.596Z,17.70
2017-07-26T03:10:00.100Z,17.60
2017-07-26T03:12:27.587Z,17.60
2017-07-26T03:14:55.897Z,17.50
2017-07-26T03:17:23.409Z,17.50
2017-07-26T03:19:50.954Z,17.40
2017-07-26T03:22:18.471Z,17.50
2017-07-26T03:24:45.964Z,17.40
2017-07-26T03:27:13.455Z,17.50
2017-07-26T03:29:40.957Z,17.50
2017-07-26T03:32:08.455Z,17.50
2017-07-26T03:34:35.964Z,17.50
2017-07-26T03:37:03.482Z,17.50
2017-07-26T03:39:31.009Z,17.40
2017-07-26T03:41:58.515Z,17.40
2017-07-26T03:44:26.782Z,17.30
2017-07-26T03:46:55.167Z,17.40
2017-07-26T03:49:22.696Z,17.30
2017-07-26T03:51:50.238Z,17.40
2017-07-26T03:54:17.756Z,17.40
2017-07-26T03:56:45.274Z,17.50
2017-07-26T03:59:12.759Z,17.50
2017-07-26T04:01:41.020Z,17.50
2017-07-26T04:04:08.548Z,17.50
2017-07-26T04:06:36.038Z,17.50
2017-07-26T04:09:03.588Z,17.50
2017-07-26T04:11:31.121Z,17.50
2017-07-26T04:13:58.611Z,17.50
2017-07-26T04:16:26.121Z,17.50
2017-07-26T04:18:53.651Z,17.60
2017-07-26T04:21:21.912Z,17.70
2017-07-26T04:23:49.422Z,17.60
2017-07-26T04:26:17.036Z,17.70
2017-07-26T04:28:44.571Z,17.60
2017-07-26T04:31:12.103Z,17.70
2017-07-26T04:33:39.628Z,17.70
2017-07-26T04:36:07.956Z,17.70
2017-07-26T04:38:35.466Z,17.70
2017-07-26T04:41:02.965Z,17.70
2017-07-26T04:43:30.469Z,17.70
2017-07-26T04:45:58.052Z,17.70
2017-07-26T04:48:25.561Z,17.70
2017-07-26T04:50:53.071Z,17.70
2017-07-26T04:53:21.329Z,17.80
2017-07-26T04:55:49.664Z,17.80
2017-07-26T04:58:17.183Z,17.80
2017-07-26T05:00:44.669Z,17.80
2017-07-26T05:03:12.536Z,17.70
2017-07-26T05:05:40.150Z,17.70
2017-07-26T05:08:07.640Z,17.40
2017-07-26T05:10:35.161Z,17.30
2017-07-26T05:13:02.658Z,17.20
2017-07-26T05:15:30.139Z,17.10
2017-07-26T05:17:57.643Z,17.10
2017-07-26T05:20:25.154Z,17.10
2017-07-26T05:22:52.641Z,17.10
2017-07-26T05:25:20.153Z,17.10
2017-07-26T05:27:47.730Z,17.10
2017-07-26T05:30:15.283Z,17.10
2017-07-26T05:32:42.804Z,17.10
2017-07-26T05:35:10.320Z,17.10
2017-07-26T05:37:37.852Z,17.10
2017-07-26T05:40:05.356Z,17.10
2017-07-26T05:42:32.854Z,17.10
2017-07-26T05:45:00.371Z,17.10
2017-07-26T05:47:27.857Z,17.20
2017-07-26T05:49:56.150Z,17.20
2017-07-26T05:52:24.426Z,17.20
2017-07-26T05:54:52.704Z,17.30
2017-07-26T05:57:21.003Z,17.30
2017-07-26T05:59:48.516Z,17.20
2017-07-26T06:02:16.035Z,17.20
2017-07-26T06:04:43.539Z,17.20
2017-07-26T06:07:11.050Z,17.20
2017-07-26T06:09:38.615Z,17.20
2017-07-26T06:12:06.230Z,17.30
2017-07-26T06:14:33.709Z,17.30
2017-07-26T06:17:01.247Z,17.30
2017-07-26T06:19:29.522Z,17.30
2017-07-26T06:21:57.784Z,17.30
2017-07-26T06:24:25.290Z,17.30
2017-07-26T06:26:52.804Z,17.20
2017-07-26T06:29:20.301Z,17.20
2017-07-26T06:31:47.834Z,17.20
2017-07-26T06:34:16.103Z,17.20
2017-07-26T06:36:44.385Z,17.20
2017-07-26T06:39:11.902Z,17.10
2017-07-26T06:41:39.394Z,17.10
2017-07-26T06:44:07.016Z,17.20
2017-07-26T06:46:34.497Z,17.20
2017-07-26T06:49:02.038Z,17.20
2017-07-26T06:51:29.543Z,17.20
2017-07-26T06:53:57.087Z,17.20
2017-07-26T06:56:24.634Z,17.30
2017-07-26T06:58:52.137Z,17.30
2017-07-26T07:01:20.397Z,17.40
2017-07-26T07:03:47.945Z,17.40
2017-07-26T07:06:15.497Z,17.50
2017-07-26T07:08:42.991Z,17.50
2017-07-26T07:11:11.238Z,17.50
2017-07-26T07:13:38.776Z,17.50
2017-07-26T07:16:06.295Z,17.50
2017-07-26T07:18:33.799Z,17.50
2017-07-26T07:21:01.298Z,17.60
2017-07-26T07:23:29.544Z,17.60
2017-07-26T07:25:57.051Z,17.60
2017-07-26T07:28:24.560Z,17.60
2017-07-26T07:30:52.070Z,17.60
2017-07-26T07:33:19.584Z,17.60
2017-07-26T07:35:47.080Z,17.60
2017-07-26T07:38:15.351Z,17.60
2017-07-26T07:40:42.868Z,17.60
2017-07-26T07:43:10.344Z,17.60
2017-07-26T07:45:37.858Z,17.70
2017-07-26T07:48:05.353Z,17.70
2017-07-26T07:50:32.981Z,17.70
2017-07-26T07:53:00.497Z,17.70
2017-07-26T07:55:28.770Z,17.80
2017-07-26T07:57:56.302Z,17.80
2017-07-26T08:00:23.802Z,17.80
2017-07-26T08:02:51.361Z,17.90
2017-07-26T08:05:19.610Z,18.00
2017-07-26T08:07:47.086Z,18.00
2017-07-26T08:10:15.367Z,17.90
2017-07-26T08:12:43.641Z,17.90
2017-07-26T08:15:11.153Z,17.90
2017-07-26T08:17:38.637Z,17.90
2017-07-26T08:20:06.191Z,17.90
2017-07-26T08:22:34.489Z,18.00
2017-07-26T08:25:01.982Z,18.00
2017-07-26T08:27:29.510Z,18.00
2017-07-26T08:29:57.006Z,18.00
2017-07-26T08:32:24.621Z,18.10
2017-07-26T08:34:52.186Z,18.10
2017-07-26T08:37:19.689Z,18.10
2017-07-26T08:39:47.211Z,18.10
2017-07-26T08:42:14.752Z,18.10
2017-07-26T08:44:42.284Z,18.10
2017-07-26T08:47:09.800Z,18.20
2017-07-26T08:49:37.324Z,18.20
2017-07-26T08:52:04.835Z,18.20
2017-07-26T08:54:32.329Z,18.20
2017-07-26T08:56:59.846Z,18.20
2017-07-26T08:59:27.394Z,18.30
2017-07-26T09:01:54.920Z,18.30
2017-07-26T09:04:22.411Z,18.20
2017-07-26T09:06:49.921Z,18.20
2017-07-26T09:09:17.399Z,18.20
2017-07-26T09:11:44.941Z,18.20
2017-07-26T09:14:12.470Z,18.30
2017-07-26T09:16:39.984Z,18.40
2017-07-26T09:19:07.513Z,18.40
2017-07-26T09:21:35.017Z,18.30
2017-07-26T09:24:02.535Z,18.40
2017-07-26T09:26:30.023Z,18.40
2017-07-26T09:28:57.532Z,18.40
2017-07-26T09:31:25.078Z,18.40
2017-07-26T09:33:52.583Z,18.40
2017-07-26T09:36:20.079Z,18.40
2017-07-26T09:38:48.365Z,18.40
2017-07-26T09:41:16.634Z,18.50
2017-07-26T09:43:44.987Z,18.50
2017-07-26T09:46:12.504Z,18.50
2017-07-26T09:48:39.995Z,18.50
2017-07-26T09:51:07.533Z,18.60
2017-07-26T09:53:35.067Z,18.60
2017-07-26T09:56:02.561Z,18.60
2017-07-26T09:58:30.103Z,18.60
2017-07-26T10:00:57.628Z,18.50
2017-07-26T10:03:25.180Z,18.50
2017-07-26T10:05:52.739Z,18.60
2017-07-26T10:08:20.228Z,18.60
2017-07-26T10:10:47.764Z,18.50
2017-07-26T10:13:16.050Z,18.40
2017-07-26T10:15:44.334Z,18.40
2017-07-26T10:18:11.847Z,18.40
2017-07-26T10:20:39.356Z,18.40
2017-07-26T10:23:06.875Z,18.40
2017-07-26T10:25:34.370Z,18.40
2017-07-26T10:28:01.876Z,18.40
2017-07-26T10:30:29.378Z,18.40
2017-07-26T10:32:56.916Z,18.40
2017-07-26T10:35:24.393Z,18.50
2017-07-26T10:37:51.995Z,18.50
2017-07-26T10:40:19.496Z,18.50
2017-07-26T10:42:47.010Z,18.60
2017-07-26T10:45:14.522Z,18.60
2017-07-26T10:47:42.035Z,18.70
2017-07-26T10:50:10.100Z,18.80
2017-07-26T10:52:37.593Z,18.80
2017-07-26T10:55:05.117Z,18.90
2017-07-26T10:57:32.716Z,19.00
2017-07-26T11:00:00.236Z,19.00
2017-07-26T11:02:27.720Z,19.00
2017-07-26T11:04:55.242Z,19.00
2017-07-26T11:07:22.751Z,18.90
2017-07-26T11:09:50.272Z,18.90
2017-07-26T11:12:17.749Z,19.00
2017-07-26T11:14:45.250Z,18.90
2017-07-26T11:17:12.782Z,18.80
2017-07-26T11:19:40.287Z,18.80
2017-07-26T11:22:07.840Z,18.80
2017-07-26T11:24:35.390Z,18.70
2017-07-26T11:27:03.733Z,18.70
2017-07-26T11:29:31.470Z,18.70
2017-07-26T11:31:58.979Z,18.60
2017-07-26T11:34:26.526Z,18.70
2017-07-26T11:36:54.038Z,18.70
2017-07-26T11:39:21.525Z,18.80
2017-07-26T11:41:49.809Z,18.80
2017-07-26T11:44:17.296Z,18.80
2017-07-26T11:46:44.778Z,18.70
2017-07-26T11:49:12.375Z,18.60
2017-07-26T11:51:39.858Z,18.60
2017-07-26T11:54:07.335Z,18.60
2017-07-26T11:56:34.818Z,18.70
2017-07-26T11:59:02.297Z,18.70
2017-07-26T12:01:30.096Z,18.70
2017-07-26T12:03:57.641Z,18.70
2017-07-26T12:06:25.131Z,18.70
2017-07-26T12:08:52.636Z,18.70
2017-07-26T12:11:20.161Z,18.80
2017-07-26T12:13:48.476Z,18.90
2017-07-26T12:16:15.976Z,18.90
2017-07-26T12:18:43.482Z,18.90
2017-07-26T12:21:10.969Z,18.80
2017-07-26T12:23:38.510Z,18.70
2017-07-26T12:26:05.992Z,18.70
2017-07-26T12:28:33.540Z,18.70
2017-07-26T12:31:01.348Z,18.60
2017-07-26T12:33:28.855Z,18.60
2017-07-26T12:35:56.345Z,18.60
2017-07-26T12:38:24.795Z,18.50
2017-07-26T12:40:52.381Z,18.50
2017-07-26T12:43:20.076Z,18.50
2017-07-26T12:45:47.622Z,18.50
2017-07-26T12:48:15.111Z,18.40
2017-07-26T12:50:42.649Z,18.40
2017-07-26T12:53:10.198Z,18.30
2017-07-26T12:55:37.696Z,18.30
2017-07-26T12:58:06.127Z,18.30
2017-07-26T13:00:33.648Z,18.30
2017-07-26T13:03:01.166Z,18.30
2017-07-26T13:05:28.679Z,18.30
2017-07-26T13:07:56.166Z,18.40
2017-07-26T13:10:23.726Z,18.30
2017-07-26T13:12:51.246Z,18.30
2017-07-26T13:15:18.934Z,18.30
2017-07-26T13:17:46.419Z,18.40
2017-07-26T13:20:14.407Z,18.40
2017-07-26T13:22:41.961Z,18.40
2017-07-26T13:25:10.273Z,18.50
2017-07-26T13:27:37.777Z,18.40
2017-07-26T13:30:06.094Z,18.50
2017-07-26T13:32:33.595Z,18.50
2017-07-26T13:35:01.152Z,18.40
2017-07-26T13:37:28.697Z,18.50
2017-07-26T13:39:56.275Z,18.40
2017-07-26T13:42:23.773Z,18.40
2017-07-26T13:44:51.312Z,18.40
2017-07-26T13:47:18.852Z,18.50
2017-07-26T13:49:46.361Z,18.40
2017-07-26T13:52:15.976Z,18.40
2017-07-26T13:54:44.259Z,18.40
2017-07-26T13:57:11.769Z,18.40
2017-07-26T13:59:39.254Z,18.30
2017-07-26T14:02:06.775Z,18.30
2017-07-26T14:04:34.286Z,18.40
2017-07-26T14:07:02.745Z,18.30
2017-07-26T14:09:31.077Z,18.20
2017-07-26T14:11:58.585Z,18.30
2017-07-26T14:14:26.087Z,18.20
2017-07-26T14:16:53.594Z,18.20
2017-07-26T14:19:21.894Z,18.00
2017-07-26T14:21:50.151Z,18.00
2017-07-26T14:24:17.761Z,17.90
2017-07-26T14:26:45.244Z,18.00
2017-07-26T14:29:12.780Z,17.90
2017-07-26T14:31:40.286Z,17.90
2017-07-26T14:34:07.862Z,17.90
2017-07-26T14:36:36.112Z,17.80
2017-07-26T14:39:03.621Z,17.80
2017-07-26T14:41:31.131Z,17.80
2017-07-26T14:43:58.625Z,17.90
2017-07-26T14:46:26.143Z,17.90
2017-07-26T14:48:53.659Z,17.90
2017-07-26T14:51:21.179Z,17.90
2017-07-26T14:53:48.721Z,18.00
2017-07-26T14:56:16.263Z,17.90
2017-07-26T14:58:43.815Z,17.90
2017-07-26T15:01:11.324Z,18.00
2017-07-26T15:03:38.827Z,17.90
2017-07-26T15:06:06.330Z,17.90
2017-07-26T15:08:34.227Z,17.90
2017-07-26T15:11:01.727Z,17.90
2017-07-26T15:13:29.247Z,17.80
2017-07-26T15:15:56.772Z,17.80
2017-07-26T15:18:24.280Z,17.80
2017-07-26T15:20:51.866Z,17.80
2017-07-26T15:23:19.383Z,17.80
2017-07-26T15:25:46.905Z,17.70
2017-07-26T15:28:14.767Z,17.70
2017-07-26T15:30:42.317Z,17.60
2017-07-26T15:33:10.406Z,17.60
2017-07-26T15:35:37.937Z,17.60
2017-07-26T15:38:05.474Z,17.60
2017-07-26T15:40:32.965Z,17.60
2017-07-26T15:43:00.458Z,17.60
2017-07-26T15:45:27.970Z,17.60
2017-07-26T15:47:55.493Z,17.60
2017-07-26T15:50:23.805Z,17.70
2017-07-26T15:52:51.309Z,17.60
2017-07-26T15:55:18.867Z,17.70
2017-07-26T15:57:46.381Z,17.60
2017-07-26T16:00:13.886Z,17.60
2017-07-26T16:02:41.377Z,17.60
2017-07-26T16:05:08.868Z,17.60
2017-07-26T16:07:36.832Z,17.60
2017-07-26T16:10:04.330Z,17.60
2017-07-26T16:12:31.959Z,17.70
2017-07-26T16:14:59.484Z,17.70
2017-07-26T16:17:26.994Z,17.70
2017-07-26T16:19:54.514Z,17.60
2017-07-26T16:22:22.048Z,17.60
2017-07-26T16:24:49.598Z,17.60
2017-07-26T16:27:17.087Z,17.60
2017-07-26T16:29:45.375Z,17.60
2017-07-26T16:32:12.906Z,17.50
2017-07-26T16:34:40.470Z,17.60
2017-07-26T16:37:08.749Z,17.60
2017-07-26T16:39:37.001Z,17.60
2017-07-26T16:42:04.493Z,17.60
2017-07-26T16:44:32.795Z,17.60
2017-07-26T16:47:01.579Z,17.50
2017-07-26T16:49:29.077Z,17.60
2017-07-26T16:51:56.585Z,17.60
2017-07-26T16:54:24.099Z,17.50
2017-07-26T16:56:51.595Z,17.50
2017-07-26T16:59:19.291Z,17.60
2017-07-26T17:01:46.774Z,17.50
2017-07-26T17:04:14.336Z,17.40
2017-07-26T17:06:41.841Z,17.50
2017-07-26T17:09:09.370Z,17.50
2017-07-26T17:11:36.890Z,17.50
2017-07-26T17:14:04.386Z,17.50
2017-07-26T17:16:31.904Z,17.50
2017-07-26T17:18:59.424Z,17.50
2017-07-26T17:21:27.785Z,17.40
2017-07-26T17:23:55.358Z,17.40
2017-07-26T17:26:23.658Z,17.50
2017-07-26T17:28:51.197Z,17.50
2017-07-26T17:31:19.635Z,17.50
2017-07-26T17:33:47.180Z,17.40
2017-07-26T17:36:14.696Z,17.50
2017-07-26T17:38:42.958Z,17.40
2017-07-26T17:41:10.496Z,17.40
2017-07-26T17:43:38.037Z,17.50
2017-07-26T17:46:05.856Z,17.50
2017-07-26T17:48:33.353Z,17.50
2017-07-26T17:51:00.878Z,17.50
2017-07-26T17:53:28.417Z,17.50
2017-07-26T17:55:55.932Z,17.50
2017-07-26T17:58:23.431Z,17.50
2017-07-26T18:00:51.012Z,17.50
2017-07-26T18:03:18.580Z,17.50
2017-07-26T18:05:46.857Z,17.50
2017-07-26T18:08:15.162Z,17.50
2017-07-26T18:10:42.714Z,17.50
2017-07-26T18:13:10.242Z,17.50
2017-07-26T18:15:37.771Z,17.50
2017-07-26T18:18:06.111Z,17.50
2017-07-26T18:20:33.645Z,17.40
2017-07-26T18:23:01.923Z,17.40
2017-07-26T18:25:29.521Z,17.30
2017-07-26T18:27:57.150Z,17.30
2017-07-26T18:30:24.642Z,17.30
2017-07-26T18:32:52.163Z,17.30
2017-07-26T18:35:20.411Z,17.30
2017-07-26T18:37:47.961Z,17.30
2017-07-26T18:40:15.499Z,17.20
2017-07-26T18:42:43.061Z,17.20
2017-07-26T18:45:10.650Z,17.20
2017-07-26T18:47:38.172Z,17.20
2017-07-26T18:50:05.754Z,17.10
2017-07-26T18:52:33.279Z,17.20
2017-07-26T18:55:00.782Z,17.10
2017-07-26T18:57:28.320Z,17.00
2017-07-26T18:59:55.840Z,17.10
2017-07-26T19:02:25.109Z,17.10
2017-07-26T19:04:52.642Z,17.10
2017-07-26T19:07:20.233Z,17.10
2017-07-26T19:09:47.740Z,17.10
2017-07-26T19:12:16.404Z,17.10
2017-07-26T19:14:44.700Z,17.20
2017-07-26T19:17:12.241Z,17.20
2017-07-26T19:19:40.536Z,17.30
2017-07-26T19:22:08.077Z,17.30
2017-07-26T19:24:36.399Z,17.50
2017-07-26T19:27:03.957Z,17.40
2017-07-26T19:29:31.574Z,17.50
2017-07-26T19:31:59.067Z,17.50
2017-07-26T19:34:26.617Z,17.60
2017-07-26T19:36:54.127Z,17.70
2017-07-26T19:39:21.647Z,17.80
2017-07-26T19:41:49.342Z,17.90
2017-07-26T19:47:06.200Z,17.80
2017-07-26T19:49:34.065Z,17.80
2017-07-26T19:52:01.681Z,17.80
2017-07-26T19:54:30.410Z,17.70
2017-07-26T19:56:58.834Z,17.70
2017-07-26T19:59:31.094Z,17.60
2017-07-26T20:04:53.659Z,17.60
2017-07-26T20:10:23.731Z,17.60
2017-07-26T20:12:51.290Z,17.60
2017-07-26T20:15:18.871Z,17.60
2017-07-26T20:17:46.387Z,17.60
2017-07-26T20:20:14.771Z,17.60
2017-07-26T20:22:43.183Z,17.70
2017-07-26T20:25:10.713Z,17.70
2017-07-26T20:27:38.237Z,17.70
2017-07-26T20:30:06.849Z,17.60
2017-07-26T20:32:34.370Z,17.60
2017-07-26T20:35:01.940Z,17.70
2017-07-26T20:37:29.477Z,17.70
2017-07-26T20:39:56.984Z,17.60
2017-07-26T20:42:25.701Z,17.70
2017-07-26T20:44:53.365Z,17.60
2017-07-26T20:47:20.913Z,17.60
2017-07-26T20:49:48.414Z,17.70
2017-07-26T20:52:15.913Z,17.70
2017-07-26T20:54:44.231Z,17.60
2017-07-26T20:57:11.732Z,17.60
2017-07-26T20:59:39.245Z,17.60
2017-07-26T21:02:06.790Z,17.70
2017-07-26T21:04:34.530Z,17.60
2017-07-26T21:07:02.023Z,17.60
2017-07-26T21:09:29.567Z,17.70
2017-07-26T21:11:57.075Z,17.60
2017-07-26T21:14:24.571Z,17.60
2017-07-26T21:16:52.162Z,17.70
2017-07-26T21:19:19.892Z,17.70
2017-07-26T21:21:47.402Z,17.70
2017-07-26T21:24:15.033Z,17.70
2017-07-26T21:26:42.606Z,17.70
2017-07-26T21:29:10.099Z,17.70
2017-07-26T21:31:37.732Z,17.60
2017-07-26T21:34:05.461Z,17.60
2017-07-26T21:36:32.954Z,17.50
2017-07-26T21:39:00.454Z,17.50
2017-07-26T21:41:28.771Z,17.50
2017-07-26T21:43:56.278Z,17.50
2017-07-26T21:46:24.725Z,17.50
2017-07-26T21:48:52.229Z,17.60
2017-07-26T21:51:19.716Z,17.60
2017-07-26T21:53:47.211Z,17.60
2017-07-26T21:56:14.729Z,17.60
2017-07-26T21:58:42.229Z,17.70
2017-07-26T22:01:09.793Z,17.70
2017-07-26T22:03:37.357Z,17.70
2017-07-26T22:06:04.840Z,17.80
2017-07-26T22:08:32.422Z,17.80
2017-07-26T22:11:00.673Z,17.70
2017-07-26T22:13:28.187Z,17.70
2017-07-26T22:15:55.685Z,17.80
2017-07-26T22:18:23.199Z,17.80
2017-07-26T22:20:50.708Z,17.80
2017-07-26T22:23:18.237Z,17.80
2017-07-26T22:25:45.777Z,17.70
2017-07-26T22:28:13.267Z,17.70
2017-07-26T22:30:40.798Z,17.70
2017-07-26T22:33:08.318Z,17.80
2017-07-26T22:35:35.831Z,17.80
2017-07-26T22:38:03.316Z,17.80
2017-07-26T22:40:30.827Z,17.80
2017-07-26T22:42:58.324Z,17.80
2017-07-26T22:45:25.906Z,17.80
2017-07-26T22:47:53.415Z,17.80
2017-07-26T22:50:20.916Z,17.80
2017-07-26T22:52:48.415Z,17.70
2017-07-26T22:55:16.093Z,17.70
2017-07-26T22:57:43.681Z,17.70
2017-07-26T23:00:11.220Z,17.70
2017-07-26T23:02:38.886Z,17.70
2017-07-26T23:05:06.447Z,17.70
2017-07-26T23:07:33.963Z,17.70
2017-07-26T23:10:01.481Z,17.70
2017-07-26T23:12:29.021Z,17.70
2017-07-26T23:14:56.965Z,17.80
2017-07-26T23:17:24.582Z,17.80
2017-07-26T23:19:52.097Z,17.80
2017-07-26T23:22:19.620Z,17.80
2017-07-26T23:24:47.117Z,17.80
2017-07-26T23:27:14.646Z,17.80
2017-07-26T23:29:42.154Z,17.80
2017-07-26T23:32:09.636Z,17.80
2017-07-26T23:34:37.165Z,17.70
2017-07-26T23:37:04.810Z,17.70
2017-07-26T23:39:32.330Z,17.80
2017-07-26T23:41:59.868Z,17.80
2017-07-26T23:44:27.392Z,17.80
2017-07-26T23:46:54.895Z,17.80
2017-07-26T23:49:22.385Z,17.70
2017-07-26T23:51:49.901Z,17.60
2017-07-26T23:54:17.407Z,17.50
2017-07-26T23:56:45.001Z,17.40
2017-07-26T23:59:12.506Z,17.30
